Time;durP1;ratioP1;P1;durP2;ratioP2;P2;SDS_P1;SDS_P2;PMS_P1;PMS_P2;Temp;Humidity;BMP_temperature;BMP_pressure;BME280_temperature;BME280_humidity;BME280_pressure;Samples;Min_cycle;Max_cycle;Signal;HPM_P1;HPM_P2
2023/05/31 00:00:16;;;;;;;5.20;3.88;;;10.00;99.90;;;;;;5032270;28;20045;-82
2023/05/31 00:02:41;;;;;;;7.95;4.00;;;10.00;99.90;;;;;;5016620;28;20053;-81
2023/05/31 00:05:08;;;;;;;10.32;4.00;;;10.00;99.90;;;;;;5016969;28;20485;-81
2023/05/31 00:07:33;;;;;;;8.32;4.00;;;9.90;99.90;;;;;;5033514;28;20075;-81
2023/05/31 00:09:59;;;;;;;9.15;4.90;;;9.90;99.90;;;;;;5015236;28;20041;-81
2023/05/31 00:12:25;;;;;;;5.65;3.90;;;9.90;99.90;;;;;;5018229;28;20096;-81
2023/05/31 00:14:51;;;;;;;6.72;3.95;;;9.90;99.90;;;;;;5017045;28;20049;-80
2023/05/31 00:17:16;;;;;;;9.02;4.63;;;9.90;99.90;;;;;;5031625;28;20029;-81
2023/05/31 00:19:42;;;;;;;7.85;4.38;;;9.90;99.90;;;;;;5016575;28;20506;-81
2023/05/31 00:22:09;;;;;;;8.15;4.35;;;9.80;99.90;;;;;;5013723;28;20600;-82
2023/05/31 00:24:35;;;;;;;7.35;4.45;;;9.80;99.90;;;;;;5015175;28;20073;-81
2023/05/31 00:27:01;;;;;;;12.13;4.53;;;9.80;99.90;;;;;;5029551;28;20103;-80
2023/05/31 00:29:27;;;;;;;6.30;3.97;;;9.80;99.90;;;;;;5017220;28;20034;-82
2023/05/31 00:31:53;;;;;;;8.05;4.70;;;9.80;99.90;;;;;;5012707;28;20033;-81
2023/05/31 00:34:21;;;;;;;8.85;4.70;;;9.70;99.90;;;;;;5014844;28;20574;-81
2023/05/31 00:36:47;;;;;;;7.65;5.00;;;9.70;99.90;;;;;;5011853;28;20128;-82
2023/05/31 00:39:12;;;;;;;8.38;4.32;;;9.70;99.90;;;;;;5027122;28;20034;-82
2023/05/31 00:41:41;;;;;;;10.15;4.38;;;9.70;99.90;;;;;;5015047;28;20112;-81
2023/05/31 00:44:07;;;;;;;9.07;4.65;;;9.70;99.90;;;;;;5016308;28;20037;-82
2023/05/31 00:46:36;;;;;;;8.38;4.68;;;9.60;99.90;;;;;;5032272;28;20099;-82
2023/05/31 00:49:03;;;;;;;9.13;4.88;;;9.60;99.90;;;;;;5012673;28;20076;-81
2023/05/31 00:51:31;;;;;;;7.18;4.45;;;9.60;99.90;;;;;;5030527;28;20041;-80
2023/05/31 00:53:59;;;;;;;11.18;4.88;;;9.60;99.90;;;;;;5047075;28;20038;-82
2023/05/31 00:56:25;;;;;;;8.35;4.60;;;9.60;99.90;;;;;;5011835;28;20033;-82
2023/05/31 00:58:53;;;;;;;8.13;4.97;;;9.60;99.90;;;;;;5013347;28;20044;-81
2023/05/31 01:01:20;;;;;;;6.13;4.63;;;9.50;99.90;;;;;;5025761;28;20089;-81
2023/05/31 01:03:47;;;;;;;8.43;5.07;;;9.50;99.90;;;;;;5053440;28;20021;-81
2023/05/31 01:06:12;;;;;;;9.25;5.40;;;9.50;99.90;;;;;;5054314;28;20055;-81
2023/05/31 01:08:39;;;;;;;6.68;5.10;;;9.50;99.90;;;;;;5057031;28;20072;-79
2023/05/31 01:11:31;;;;;;;7.80;5.15;;;9.50;99.90;;;;;;5038636;28;20036;-80
2023/05/31 01:14:17;;;;;;;11.48;5.25;;;9.50;99.90;;;;;;5050660;28;20029;-79
2023/05/31 01:16:54;;;;;;;8.88;5.63;;;9.50;99.90;;;;;;5053597;28;20060;-81
2023/05/31 01:19:51;;;;;;;12.27;5.40;;;9.50;99.90;;;;;;5051105;28;20029;-81
2023/05/31 01:22:50;;;;;;;10.43;5.20;;;9.40;99.90;;;;;;5053751;28;20033;-81
2023/05/31 01:25:52;;;;;;;9.30;6.13;;;9.40;99.90;;;;;;5034263;28;20044;-81
2023/05/31 01:28:19;;;;;;;7.38;5.00;;;9.40;99.90;;;;;;4979860;28;20061;-81
2023/05/31 01:30:48;;;;;;;12.50;6.18;;;9.40;99.90;;;;;;5040979;28;20067;-80
2023/05/31 01:33:17;;;;;;;11.00;6.05;;;9.30;99.90;;;;;;5050657;28;20323;-81
2023/05/31 01:35:46;;;;;;;11.60;6.30;;;9.30;99.90;;;;;;5054081;28;20054;-81
2023/05/31 01:38:12;;;;;;;11.00;6.40;;;9.30;99.90;;;;;;5053741;28;20653;-81
2023/05/31 01:40:39;;;;;;;13.48;6.38;;;9.30;99.90;;;;;;5052612;28;20033;-80
2023/05/31 01:43:06;;;;;;;10.23;5.70;;;9.30;99.90;;;;;;5035164;28;20029;-81
2023/05/31 01:45:34;;;;;;;11.20;5.70;;;9.30;99.90;;;;;;5048621;28;20033;-81
2023/05/31 01:48:07;;;;;;;13.13;6.47;;;9.30;99.90;;;;;;5048715;28;20052;-81
2023/05/31 01:50:35;;;;;;;11.25;6.28;;;9.20;99.90;;;;;;5054071;28;20081;-81
2023/05/31 01:53:01;;;;;;;11.27;6.18;;;9.20;99.90;;;;;;5036619;28;20038;-81
2023/05/31 01:55:28;;;;;;;10.85;6.28;;;9.20;99.90;;;;;;5049968;28;20068;-81
2023/05/31 01:57:55;;;;;;;9.38;5.43;;;9.20;99.90;;;;;;5038994;28;20033;-81
2023/05/31 02:00:23;;;;;;;10.05;5.85;;;9.30;99.90;;;;;;5053885;28;20041;-80
2023/05/31 02:02:50;;;;;;;10.65;6.05;;;9.10;99.90;;;;;;5038160;28;20045;-78
2023/05/31 02:05:16;;;;;;;9.35;6.03;;;9.10;99.90;;;;;;5052909;28;20049;-81
2023/05/31 02:07:47;;;;;;;11.52;6.03;;;9.10;99.90;;;;;;5035886;28;20017;-81
2023/05/31 02:10:17;;;;;;;10.60;6.25;;;9.10;99.90;;;;;;5026437;28;20481;-82
2023/05/31 02:12:50;;;;;;;14.10;6.35;;;9.00;99.90;;;;;;5015906;28;20038;-82
2023/05/31 02:15:19;;;;;;;9.45;6.28;;;9.00;99.90;;;;;;5032428;28;20046;-82
2023/05/31 02:17:46;;;;;;;11.90;6.47;;;9.00;99.90;;;;;;5013767;28;20038;-83
2023/05/31 02:20:15;;;;;;;13.00;6.40;;;9.00;99.90;;;;;;5031850;28;20493;-82
2023/05/31 02:22:41;;;;;;;8.60;5.40;;;9.00;99.90;;;;;;5013922;28;20038;-82
2023/05/31 02:25:16;;;;;;;9.55;6.63;;;8.90;99.90;;;;;;5028870;28;20037;-82
2023/05/31 02:27:42;;;;;;;11.85;6.40;;;8.90;99.90;;;;;;5030145;28;20052;-82
2023/05/31 02:30:11;;;;;;;10.15;7.00;;;8.90;99.90;;;;;;5015708;28;20052;-82
2023/05/31 02:32:37;;;;;;;11.65;6.20;;;8.90;99.90;;;;;;5014163;28;20034;-82
2023/05/31 02:35:09;;;;;;;9.70;6.78;;;8.90;99.90;;;;;;5031156;28;20071;-82
2023/05/31 02:37:36;;;;;;;11.10;6.20;;;8.90;99.90;;;;;;5028330;28;20106;-82
2023/05/31 02:40:08;;;;;;;11.27;6.97;;;8.90;99.90;;;;;;5015457;28;20033;-82
2023/05/31 02:42:35;;;;;;;8.98;6.70;;;8.80;99.90;;;;;;5035554;28;20042;-82
2023/05/31 02:45:01;;;;;;;12.00;6.75;;;8.80;99.90;;;;;;5018503;28;20103;-82
2023/05/31 02:47:27;;;;;;;14.55;7.20;;;8.80;99.90;;;;;;5011275;28;20073;-82
2023/05/31 02:49:52;;;;;;;10.82;7.25;;;8.80;99.90;;;;;;5026033;28;20486;-82
2023/05/31 02:52:18;;;;;;;11.27;6.78;;;8.80;99.90;;;;;;5016576;28;20106;-82
2023/05/31 02:54:47;;;;;;;11.43;7.43;;;8.80;99.90;;;;;;5018963;28;20505;-83
2023/05/31 02:57:15;;;;;;;13.70;7.97;;;8.80;99.90;;;;;;5016121;28;20040;-83
2023/05/31 02:59:46;;;;;;;12.98;8.02;;;8.80;99.90;;;;;;5035673;28;20436;-81
2023/05/31 03:02:12;;;;;;;15.10;7.82;;;8.80;99.90;;;;;;5029435;28;20493;-82
2023/05/31 03:04:38;;;;;;;13.23;7.50;;;8.80;99.90;;;;;;5018149;28;20033;-82
2023/05/31 03:07:04;;;;;;;13.85;7.82;;;8.80;99.90;;;;;;5015833;28;20045;-82
2023/05/31 03:09:30;;;;;;;11.52;7.18;;;8.80;99.90;;;;;;5033095;28;20052;-82
2023/05/31 03:11:56;;;;;;;13.93;7.50;;;8.80;99.90;;;;;;5016112;28;20450;-82
2023/05/31 03:14:21;;;;;;;11.63;6.97;;;8.70;99.90;;;;;;5017592;28;20081;-82
2023/05/31 03:16:47;;;;;;;10.85;7.53;;;8.70;99.90;;;;;;5031766;28;20076;-81
2023/05/31 03:19:16;;;;;;;10.77;6.70;;;8.70;99.90;;;;;;5029483;28;20056;-82
2023/05/31 03:21:41;;;;;;;16.35;7.90;;;8.70;99.90;;;;;;5034572;28;20133;-81
2023/05/31 03:24:07;;;;;;;12.52;7.20;;;8.70;99.90;;;;;;5031805;28;20476;-81
2023/05/31 03:26:33;;;;;;;12.95;7.82;;;8.70;99.90;;;;;;5031383;28;20104;-82
2023/05/31 03:28:59;;;;;;;12.02;7.85;;;8.60;99.90;;;;;;5017346;28;20041;-82
2023/05/31 03:31:24;;;;;;;17.20;8.43;;;8.60;99.90;;;;;;5033584;28;20586;-82
2023/05/31 03:33:51;;;;;;;12.75;7.65;;;8.60;99.90;;;;;;5032868;28;20037;-82
2023/05/31 03:36:16;;;;;;;14.75;8.18;;;8.60;99.90;;;;;;5017511;28;20064;-81
2023/05/31 03:38:42;;;;;;;13.10;7.95;;;8.70;99.90;;;;;;5016621;28;20045;-82
2023/05/31 03:41:08;;;;;;;14.77;8.10;;;8.60;99.90;;;;;;5000458;28;20251;-82
2023/05/31 03:43:34;;;;;;;20.60;8.73;;;8.70;99.90;;;;;;5033191;28;20048;-83
2023/05/31 03:46:03;;;;;;;15.10;8.48;;;8.70;99.90;;;;;;5030684;28;20069;-82
2023/05/31 03:48:28;;;;;;;21.88;8.93;;;8.70;99.90;;;;;;5031168;28;20412;-83
2023/05/31 03:50:56;;;;;;;15.55;8.63;;;8.70;99.90;;;;;;5018462;28;20043;-83
2023/05/31 03:53:21;;;;;;;17.75;8.88;;;8.70;99.90;;;;;;5034073;28;20073;-83
2023/05/31 03:55:47;;;;;;;17.02;8.75;;;8.70;99.90;;;;;;5033105;28;20077;-82
2023/05/31 03:58:16;;;;;;;15.55;8.10;;;8.70;99.90;;;;;;5014861;28;20375;-83
2023/05/31 04:00:42;;;;;;;15.98;8.50;;;8.70;99.90;;;;;;5031525;28;20048;-82
2023/05/31 04:03:11;;;;;;;14.10;7.85;;;8.70;99.90;;;;;;5028422;28;20045;-83
2023/05/31 04:05:38;;;;;;;16.88;9.07;;;8.80;99.90;;;;;;5017737;28;20156;-83
2023/05/31 04:08:04;;;;;;;13.40;8.73;;;8.80;99.90;;;;;;5018277;28;20041;-81
2023/05/31 04:10:31;;;;;;;16.10;8.80;;;8.80;99.90;;;;;;5054446;28;20045;-80
2023/05/31 04:12:56;;;;;;;16.88;8.75;;;8.80;99.90;;;;;;5052752;28;20037;-80
2023/05/31 04:15:22;;;;;;;17.80;9.00;;;8.90;99.90;;;;;;5051338;28;20054;-80
2023/05/31 04:17:48;;;;;;;19.10;9.13;;;9.00;99.90;;;;;;5037207;28;20038;-80
2023/05/31 04:20:18;;;;;;;14.02;8.20;;;9.00;99.90;;;;;;5036556;28;20092;-81
2023/05/31 04:22:47;;;;;;;14.73;8.50;;;9.10;99.90;;;;;;5036560;28;20063;-79
2023/05/31 04:25:13;;;;;;;12.70;8.15;;;9.10;99.90;;;;;;5050973;28;20094;-79
2023/05/31 04:27:42;;;;;;;15.35;8.85;;;9.20;99.90;;;;;;5037195;28;20040;-80
2023/05/31 04:30:08;;;;;;;16.48;8.43;;;9.30;99.90;;;;;;5034710;28;20042;-79
2023/05/31 04:32:34;;;;;;;17.55;9.05;;;9.40;99.90;;;;;;5033578;28;20042;-79
2023/05/31 04:35:03;;;;;;;17.73;9.25;;;9.50;99.90;;;;;;5034810;28;20061;-78
2023/05/31 04:37:32;;;;;;;18.70;9.40;;;9.70;99.90;;;;;;5035097;28;20053;-78
2023/05/31 04:39:59;;;;;;;20.30;10.18;;;9.70;99.90;;;;;;5052054;28;20071;-78
2023/05/31 04:42:26;;;;;;;16.42;8.95;;;9.80;99.90;;;;;;5036296;28;20049;-80
2023/05/31 04:45:00;;;;;;;15.57;9.50;;;9.90;99.90;;;;;;5036841;28;20045;-78
2023/05/31 04:47:30;;;;;;;17.73;9.23;;;10.00;99.90;;;;;;5033944;28;20046;-80
2023/05/31 04:49:57;;;;;;;14.98;9.32;;;10.10;99.90;;;;;;5035044;28;20052;-80
2023/05/31 04:52:30;;;;;;;20.15;10.95;;;10.30;99.90;;;;;;5051330;28;20132;-79
2023/05/31 04:54:58;;;;;;;19.77;11.27;;;10.80;99.90;;;;;;5032967;28;20065;-78
2023/05/31 04:57:26;;;;;;;17.27;10.38;;;11.20;99.90;;;;;;5028084;28;20017;-79
2023/05/31 04:59:53;;;;;;;18.70;9.40;;;11.60;99.90;;;;;;5051833;28;20045;-79
2023/05/31 05:02:20;;;;;;;17.42;9.88;;;11.90;99.90;;;;;;5051945;28;20065;-79
2023/05/31 05:04:47;;;;;;;20.02;10.00;;;12.10;99.90;;;;;;5049905;28;20049;-80
2023/05/31 05:07:16;;;;;;;14.85;10.02;;;12.20;99.90;;;;;;5034522;28;20029;-78
2023/05/31 05:09:42;;;;;;;17.42;9.68;;;12.20;99.90;;;;;;5034159;28;20116;-78
2023/05/31 05:12:09;;;;;;;16.08;8.85;;;12.40;99.90;;;;;;5033667;28;20048;-79
2023/05/31 05:14:35;;;;;;;20.70;10.10;;;12.60;99.90;;;;;;5030118;28;20030;-80
2023/05/31 05:17:00;;;;;;;15.55;8.98;;;12.60;99.90;;;;;;5034768;28;20053;-78
2023/05/31 05:19:26;;;;;;;14.23;8.43;;;12.60;99.90;;;;;;5048140;28;20037;-81
2023/05/31 05:21:52;;;;;;;18.15;9.18;;;12.50;99.90;;;;;;5032021;28;20072;-79
2023/05/31 05:24:18;;;;;;;13.15;8.25;;;12.40;99.90;;;;;;5050823;28;20041;-80
2023/05/31 05:26:46;;;;;;;12.75;8.55;;;12.40;99.90;;;;;;5033953;28;20037;-77
2023/05/31 05:29:12;;;;;;;14.13;8.70;;;12.40;99.90;;;;;;5028797;28;20052;-78
2023/05/31 05:31:38;;;;;;;14.10;8.50;;;12.40;99.90;;;;;;5045547;28;20045;-78
2023/05/31 05:34:04;;;;;;;15.00;7.43;;;12.40;99.90;;;;;;5015009;28;20065;-78
2023/05/31 05:36:30;;;;;;;13.57;8.55;;;12.40;99.90;;;;;;5031650;28;20049;-78
2023/05/31 05:39:03;;;;;;;14.63;7.45;;;12.50;99.90;;;;;;5030649;28;20048;-79
2023/05/31 05:41:30;;;;;;;14.85;7.80;;;12.50;99.90;;;;;;5023610;28;20490;-78
2023/05/31 05:43:55;;;;;;;14.95;8.00;;;12.50;99.90;;;;;;5029201;28;20041;-79
2023/05/31 05:46:21;;;;;;;12.18;7.68;;;12.50;99.90;;;;;;5010317;28;20107;-80
2023/05/31 05:48:47;;;;;;;10.90;7.18;;;12.60;99.90;;;;;;5026410;28;20052;-80
2023/05/31 05:51:15;;;;;;;10.57;6.80;;;12.70;99.90;;;;;;5039625;28;20107;-79
2023/05/31 05:53:41;;;;;;;18.23;7.60;;;12.70;99.90;;;;;;5026835;28;20095;-78
2023/05/31 05:56:07;;;;;;;13.70;7.32;;;12.90;99.90;;;;;;5025150;28;20045;-79
2023/05/31 05:58:33;;;;;;;14.48;6.60;;;13.00;99.90;;;;;;5007773;28;20044;-81
2023/05/31 06:00:59;;;;;;;12.10;6.63;;;13.10;99.90;;;;;;5030148;28;20076;-82
2023/05/31 06:03:24;;;;;;;14.68;7.05;;;13.20;99.90;;;;;;5026587;28;20048;-83
2023/05/31 06:05:50;;;;;;;9.50;7.03;;;13.20;99.90;;;;;;5014662;28;20110;-83
2023/05/31 06:08:16;;;;;;;11.85;6.10;;;13.30;99.90;;;;;;5030741;28;20079;-81
2023/05/31 06:10:42;;;;;;;10.25;6.43;;;13.30;99.90;;;;;;5028203;28;20481;-83
2023/05/31 06:13:08;;;;;;;10.90;6.93;;;13.40;99.90;;;;;;5018510;28;20585;-82
2023/05/31 06:15:34;;;;;;;13.77;7.20;;;13.50;99.90;;;;;;5017388;28;20045;-82
2023/05/31 06:17:59;;;;;;;12.10;6.40;;;13.60;99.90;;;;;;5018310;28;20037;-83
2023/05/31 06:20:26;;;;;;;15.23;6.40;;;13.60;99.90;;;;;;5033573;28;20045;-82
2023/05/31 06:22:52;;;;;;;11.95;6.50;;;13.70;99.90;;;;;;5033841;28;20049;-82
2023/05/31 06:25:19;;;;;;;10.15;6.40;;;13.80;99.90;;;;;;5018059;28;20684;-83
2023/05/31 06:27:45;;;;;;;10.90;6.45;;;13.90;99.90;;;;;;5016677;28;20393;-84
2023/05/31 06:30:13;;;;;;;11.68;5.88;;;13.90;99.90;;;;;;5034940;28;20060;-84
2023/05/31 06:32:45;;;;;;;11.45;6.82;;;14.00;99.90;;;;;;5001658;28;20052;-83
2023/05/31 06:35:11;;;;;;;12.70;6.35;;;14.10;99.90;;;;;;5031922;28;20113;-82
2023/05/31 06:37:37;;;;;;;11.18;5.90;;;14.10;99.90;;;;;;5017920;28;20053;-84
2023/05/31 06:40:04;;;;;;;14.50;6.07;;;14.20;99.90;;;;;;5015141;28;20045;-80
2023/05/31 06:42:30;;;;;;;12.38;5.97;;;14.40;99.90;;;;;;5017420;28;20041;-82
2023/05/31 06:44:56;;;;;;;12.73;6.88;;;14.40;99.90;;;;;;5017155;28;20111;-82
2023/05/31 06:47:21;;;;;;;13.25;5.90;;;14.60;99.90;;;;;;5035174;28;20543;-81
2023/05/31 06:49:47;;;;;;;14.43;6.05;;;14.70;99.90;;;;;;5032586;28;20042;-82
2023/05/31 06:52:16;;;;;;;9.43;5.65;;;14.90;99.90;;;;;;5031736;28;20037;-82
2023/05/31 06:54:46;;;;;;;11.70;5.63;;;14.90;99.90;;;;;;5015525;28;20049;-82
2023/05/31 06:57:11;;;;;;;10.88;5.85;;;15.10;99.90;;;;;;5033922;28;20053;-81
2023/05/31 06:59:37;;;;;;;10.55;6.32;;;15.20;99.90;;;;;;5017488;28;20048;-82
2023/05/31 07:02:03;;;;;;;10.70;5.68;;;15.30;99.90;;;;;;5032322;28;20121;-81
2023/05/31 07:04:29;;;;;;;9.75;5.50;;;15.40;99.90;;;;;;5032082;28;20041;-82
2023/05/31 07:06:55;;;;;;;12.82;5.97;;;15.50;99.90;;;;;;5018153;28;20370;-82
2023/05/31 07:09:21;;;;;;;10.95;6.25;;;15.60;99.90;;;;;;5017781;28;20041;-82
2023/05/31 07:11:47;;;;;;;10.20;6.00;;;15.60;99.90;;;;;;5033113;28;20041;-82
2023/05/31 07:14:12;;;;;;;10.20;6.05;;;15.70;99.90;;;;;;5016950;28;20384;-82
2023/05/31 07:16:38;;;;;;;14.10;5.90;;;15.90;99.90;;;;;;5017181;28;20355;-81
2023/05/31 07:19:04;;;;;;;8.50;5.45;;;16.10;99.90;;;;;;5028717;28;20045;-82
2023/05/31 07:21:30;;;;;;;13.45;5.95;;;16.10;99.90;;;;;;5034917;28;20550;-84
2023/05/31 07:23:56;;;;;;;8.95;5.45;;;16.20;99.90;;;;;;5034239;28;20053;-83
2023/05/31 07:26:22;;;;;;;9.75;5.90;;;16.30;99.90;;;;;;5017280;28;20052;-83
2023/05/31 07:28:52;;;;;;;7.10;5.22;;;16.40;99.90;;;;;;5016745;28;20053;-83
2023/05/31 07:31:19;;;;;;;8.80;5.85;;;16.50;99.90;;;;;;5014768;28;20045;-83
2023/05/31 07:33:45;;;;;;;11.82;5.95;;;16.70;99.90;;;;;;5013617;28;20037;-83
2023/05/31 07:36:11;;;;;;;12.25;6.80;;;16.80;99.90;;;;;;5029563;28;20057;-85
2023/05/31 07:38:37;;;;;;;8.85;5.25;;;16.90;99.90;;;;;;5034228;28;20049;-83
2023/05/31 07:41:03;;;;;;;12.20;5.45;;;16.90;99.90;;;;;;5013194;28;20049;-84
2023/05/31 07:43:32;;;;;;;10.18;5.97;;;17.20;99.90;;;;;;5030790;28;20514;-83
2023/05/31 07:45:57;;;;;;;9.40;5.10;;;17.30;99.90;;;;;;5014964;28;20533;-83
2023/05/31 07:48:24;;;;;;;11.65;6.45;;;17.40;99.90;;;;;;5031569;28;20124;-84
2023/05/31 07:50:50;;;;;;;9.85;5.60;;;17.50;99.90;;;;;;5015911;28;20103;-83
2023/05/31 07:53:16;;;;;;;9.90;6.07;;;17.60;99.90;;;;;;5016522;28;20040;-83
2023/05/31 07:55:46;;;;;;;9.43;6.28;;;17.60;99.90;;;;;;5016187;28;20045;-83
2023/05/31 07:58:13;;;;;;;10.93;5.70;;;17.60;99.90;;;;;;5029923;28;20049;-83
2023/05/31 08:00:42;;;;;;;11.27;6.25;;;17.70;99.90;;;;;;5014521;28;20053;-84
2023/05/31 08:03:07;;;;;;;10.27;6.63;;;17.80;99.90;;;;;;5030538;28;20046;-82
2023/05/31 08:05:33;;;;;;;9.07;5.38;;;18.00;99.90;;;;;;5029057;28;20041;-83
2023/05/31 08:08:00;;;;;;;9.90;5.53;;;18.20;99.90;;;;;;5012934;28;20033;-83
2023/05/31 08:10:26;;;;;;;10.52;5.35;;;18.20;99.90;;;;;;5015235;28;20044;-84
2023/05/31 08:12:51;;;;;;;10.82;4.97;;;18.30;99.90;;;;;;5017214;28;20405;-82
2023/05/31 08:15:17;;;;;;;9.55;5.15;;;18.20;99.90;;;;;;5028704;28;20042;-83
2023/05/31 08:17:46;;;;;;;7.38;4.70;;;18.20;99.90;;;;;;5016279;28;20037;-83
2023/05/31 08:20:16;;;;;;;10.27;5.70;;;18.40;99.90;;;;;;5031437;28;20060;-84
2023/05/31 08:22:46;;;;;;;6.90;4.00;;;18.50;99.90;;;;;;5028217;28;20045;-83
2023/05/31 08:25:18;;;;;;;9.27;4.95;;;18.80;99.90;;;;;;5014771;28;20041;-83
2023/05/31 08:27:46;;;;;;;11.73;4.63;;;19.00;99.90;;;;;;5016458;28;20044;-84
2023/05/31 08:30:12;;;;;;;8.77;4.55;;;19.20;99.90;;;;;;5031317;28;20045;-84
2023/05/31 08:32:40;;;;;;;7.43;3.67;;;19.40;99.90;;;;;;5016272;28;20037;-84
2023/05/31 08:35:07;;;;;;;7.60;3.80;;;19.50;99.90;;;;;;5032918;28;20046;-84
2023/05/31 08:37:35;;;;;;;9.00;3.97;;;19.70;99.90;;;;;;5032482;28;20073;-84
2023/05/31 08:40:01;;;;;;;6.50;3.80;;;19.90;99.90;;;;;;5033187;28;20037;-84
2023/05/31 08:42:38;;;;;;;10.63;4.03;;;19.80;99.90;;;;;;5013340;28;20390;-81
2023/05/31 08:45:04;;;;;;;8.82;3.75;;;20.00;99.90;;;;;;5013325;28;20037;-83
2023/05/31 08:47:46;;;;;;;6.03;4.07;;;20.20;99.90;;;;;;5031747;28;20080;-80
2023/05/31 08:50:12;;;;;;;8.98;3.90;;;20.40;99.90;;;;;;5014643;28;20055;-79
2023/05/31 08:52:39;;;;;;;7.28;3.55;;;20.60;99.90;;;;;;5014790;28;20049;-80
2023/05/31 08:55:05;;;;;;;6.25;3.35;;;20.60;99.90;;;;;;5016951;28;20042;-81
2023/05/31 08:57:33;;;;;;;7.32;3.63;;;20.50;99.90;;;;;;5034462;28;20041;-80
2023/05/31 09:00:07;;;;;;;8.82;3.53;;;20.50;99.90;;;;;;5014629;28;20038;-80
2023/05/31 09:02:33;;;;;;;8.23;3.40;;;20.60;99.90;;;;;;5016813;28;20048;-79
2023/05/31 09:05:00;;;;;;;10.48;4.32;;;20.70;99.90;;;;;;5031727;28;20037;-80
2023/05/31 09:07:29;;;;;;;9.00;4.18;;;20.80;99.90;;;;;;5017476;28;20116;-80
2023/05/31 09:09:54;;;;;;;7.97;3.42;;;21.00;99.90;;;;;;5032269;28;20049;-79
2023/05/31 09:12:21;;;;;;;8.75;3.70;;;21.40;99.90;;;;;;5033277;28;20038;-79
2023/05/31 09:14:47;;;;;;;8.90;4.03;;;21.80;99.90;;;;;;5015140;28;20394;-81
2023/05/31 09:17:17;;;;;;;6.05;3.70;;;22.10;99.90;;;;;;5015988;28;20041;-79
2023/05/31 09:19:52;;;;;;;7.43;3.70;;;22.10;99.90;;;;;;5015411;28;20120;-80
2023/05/31 09:22:18;;;;;;;5.22;3.35;;;22.20;98.60;;;;;;5034379;28;20033;-78
2023/05/31 09:25:00;;;;;;;9.07;3.60;;;22.50;99.60;;;;;;5014835;28;20564;-79
2023/05/31 09:27:33;;;;;;;7.88;3.47;;;22.50;99.20;;;;;;5033437;28;20053;-80
2023/05/31 09:30:11;;;;;;;8.52;3.97;;;22.60;98.30;;;;;;5014323;28;20046;-79
2023/05/31 09:32:37;;;;;;;5.63;3.45;;;22.70;96.60;;;;;;5010246;28;20050;-79
2023/05/31 09:35:12;;;;;;;11.90;3.35;;;22.70;98.10;;;;;;5031824;28;20045;-79
2023/05/31 09:37:46;;;;;;;7.05;3.10;;;22.80;96.60;;;;;;5015502;28;20053;-78
2023/05/31 09:40:26;;;;;;;6.72;3.08;;;23.00;96.50;;;;;;5013343;28;20073;-79
2023/05/31 09:42:54;;;;;;;8.15;2.70;;;23.10;95.10;;;;;;5014698;28;20042;-79
2023/05/31 09:45:21;;;;;;;8.50;3.10;;;23.40;95.30;;;;;;5014686;28;20497;-79
2023/05/31 09:47:48;;;;;;;5.38;3.00;;;23.30;93.50;;;;;;5033118;28;20038;-80
2023/05/31 09:50:22;;;;;;;6.57;3.10;;;23.40;93.80;;;;;;5035284;28;20204;-80
2023/05/31 09:52:48;;;;;;;;;;;23.60;92.60;;;;;;5028674;28;20049;-81
2023/05/31 09:55:16;;;;;;;5.40;3.00;;;23.50;91.80;;;;;;5029764;28;19943;-80
2023/05/31 09:57:51;;;;;;;7.80;2.80;;;23.50;93.00;;;;;;5021565;28;20045;-80
2023/05/31 10:00:21;;;;;;;7.03;3.20;;;23.50;90.60;;;;;;5017958;28;20437;-79
2023/05/31 10:02:52;;;;;;;6.35;3.00;;;23.50;91.60;;;;;;5032936;28;20057;-79
2023/05/31 10:05:20;;;;;;;8.75;3.00;;;23.80;92.90;;;;;;5019150;28;20049;-80
2023/05/31 10:07:48;;;;;;;7.20;3.13;;;23.80;90.80;;;;;;5033946;28;20046;-79
2023/05/31 10:10:14;;;;;;;7.90;3.05;;;23.90;90.70;;;;;;5034871;28;20034;-80
2023/05/31 10:13:00;;;;;;;9.40;3.13;;;24.10;91.50;;;;;;5035387;28;20103;-80
2023/05/31 10:15:27;;;;;;;6.68;2.80;;;24.30;88.30;;;;;;5018790;28;20033;-81
2023/05/31 10:18:02;;;;;;;5.15;2.60;;;23.90;87.50;;;;;;5018280;28;20026;-81
2023/05/31 10:20:41;;;;;;;6.13;2.47;;;23.90;87.30;;;;;;5018875;28;20088;-80
2023/05/31 10:23:16;;;;;;;7.68;3.00;;;24.10;87.30;;;;;;5032783;28;20426;-80
2023/05/31 10:26:06;;;;;;;7.72;3.22;;;24.20;86.40;;;;;;5038552;28;20560;-80
2023/05/31 10:28:37;;;;;;;6.53;3.05;;;24.30;82.40;;;;;;5031006;28;20045;-80
2023/05/31 10:31:04;;;;;;;5.93;3.28;;;24.40;85.20;;;;;;5032112;28;20060;-80
2023/05/31 10:33:31;;;;;;;7.00;3.33;;;24.40;84.20;;;;;;5019978;28;20535;-80
2023/05/31 10:36:00;;;;;;;6.13;3.05;;;24.40;83.20;;;;;;5031582;28;20038;-81
2023/05/31 10:38:34;;;;;;;7.95;3.00;;;24.30;83.60;;;;;;5018904;28;20045;-80
2023/05/31 10:41:09;;;;;;;5.75;2.65;;;24.10;84.40;;;;;;5012342;28;20098;-80
2023/05/31 10:43:44;;;;;;;6.25;2.55;;;24.20;85.90;;;;;;5007800;28;20073;-80
2023/05/31 10:46:19;;;;;;;4.93;2.53;;;24.60;87.40;;;;;;5031733;28;20041;-80
2023/05/31 10:48:52;;;;;;;7.07;3.20;;;24.90;85.50;;;;;;5017502;28;20045;-80
2023/05/31 10:51:18;;;;;;;5.97;3.05;;;24.60;82.60;;;;;;5017278;28;20105;-81
2023/05/31 10:53:49;;;;;;;6.80;2.60;;;24.50;85.20;;;;;;5033859;28;20446;-80
2023/05/31 10:56:18;;;;;;;4.13;2.20;;;24.70;84.40;;;;;;5034422;28;20739;-82
2023/05/31 10:58:53;;;;;;;4.60;2.00;;;24.90;85.80;;;;;;5034824;28;20033;-80
2023/05/31 11:01:21;;;;;;;8.93;2.60;;;25.00;84.80;;;;;;5030817;28;20040;-80
2023/05/31 11:03:51;;;;;;;6.32;2.63;;;25.40;86.30;;;;;;5032990;28;20041;-80
2023/05/31 11:06:28;;;;;;;5.65;2.50;;;25.40;82.70;;;;;;5035053;28;20054;-80
2023/05/31 11:09:01;;;;;;;4.75;2.70;;;25.50;81.30;;;;;;5032822;28;20084;-80
2023/05/31 11:11:33;;;;;;;5.53;2.55;;;25.60;81.00;;;;;;5035561;28;20134;-81
2023/05/31 11:14:06;;;;;;;7.05;2.60;;;25.60;80.20;;;;;;5031337;28;20536;-80
2023/05/31 11:16:46;;;;;;;5.50;2.70;;;25.80;79.50;;;;;;5021856;28;20042;-80
2023/05/31 11:19:17;;;;;;;9.13;2.80;;;25.60;79.30;;;;;;5029894;28;20556;-79
2023/05/31 11:21:59;;;;;;;6.90;2.53;;;25.30;78.40;;;;;;5016929;28;20037;-80
2023/05/31 11:24:33;;;;;;;6.72;3.03;;;25.10;77.40;;;;;;5036798;28;20041;-81
2023/05/31 11:27:01;;;;;;;5.65;2.70;;;25.30;79.50;;;;;;5033086;28;20653;-81
2023/05/31 11:30:22;;;;;;;8.52;2.60;;;25.30;78.90;;;;;;5033124;28;20042;-80
2023/05/31 11:32:51;;;;;;;7.85;3.78;;;25.50;81.20;;;;;;4958194;28;20054;-81
2023/05/31 11:35:17;;;;;;;8.85;3.90;;;25.30;80.00;;;;;;5031536;28;20095;-81
2023/05/31 11:37:44;;;;;;;7.93;3.45;;;25.10;81.90;;;;;;5018740;28;20448;-80
2023/05/31 11:40:12;;;;;;;7.95;3.67;;;25.10;81.90;;;;;;5002958;28;20042;-80
2023/05/31 11:42:39;;;;;;;8.95;4.00;;;25.10;81.60;;;;;;5014697;28;20500;-80
2023/05/31 11:45:15;;;;;;;10.05;4.10;;;25.30;81.70;;;;;;5018443;28;20052;-80
2023/05/31 11:47:53;;;;;;;11.25;3.67;;;25.40;80.20;;;;;;5031599;28;20047;-79
2023/05/31 11:50:19;;;;;;;9.77;4.00;;;25.40;81.50;;;;;;5032785;28;20045;-80
2023/05/31 11:52:45;;;;;;;8.75;4.13;;;25.00;80.80;;;;;;5030905;28;20505;-83
2023/05/31 11:55:14;;;;;;;7.50;3.65;;;25.10;83.10;;;;;;5031306;28;20080;-81
2023/05/31 11:57:46;;;;;;;11.90;4.50;;;24.90;82.40;;;;;;5016131;28;20111;-81
2023/05/31 12:00:15;;;;;;;9.13;4.03;;;24.60;83.40;;;;;;5016707;28;20120;-81
2023/05/31 12:02:52;;;;;;;6.93;3.83;;;24.20;82.20;;;;;;5017446;28;20132;-81
2023/05/31 12:05:18;;;;;;;7.13;3.97;;;23.90;86.20;;;;;;5035911;28;20045;-81
2023/05/31 12:07:46;;;;;;;10.02;4.45;;;23.90;87.10;;;;;;5034138;28;20072;-81
2023/05/31 12:10:12;;;;;;;7.00;3.55;;;24.20;85.00;;;;;;5034746;28;20076;-82
2023/05/31 12:12:41;;;;;;;7.75;4.40;;;24.20;84.60;;;;;;5030361;28;20041;-81
2023/05/31 12:15:11;;;;;;;8.98;4.10;;;24.30;84.80;;;;;;5016975;28;20096;-82
2023/05/31 12:17:39;;;;;;;7.30;3.75;;;24.20;82.50;;;;;;5017780;28;20029;-81
2023/05/31 12:20:05;;;;;;;7.10;3.78;;;24.00;84.20;;;;;;5018433;28;20069;-81
2023/05/31 12:22:31;;;;;;;8.43;3.88;;;24.20;86.10;;;;;;5045514;28;20048;-82
2023/05/31 12:24:57;;;;;;;7.93;4.35;;;24.50;83.70;;;;;;5018209;28;20041;-81
2023/05/31 12:27:24;;;;;;;6.97;4.35;;;24.50;83.20;;;;;;5014890;28;20046;-81
2023/05/31 12:30:00;;;;;;;8.80;3.63;;;24.50;81.60;;;;;;5031527;28;20124;-81
2023/05/31 12:32:29;;;;;;;8.48;3.90;;;24.60;82.60;;;;;;5031004;28;20041;-81
2023/05/31 12:35:09;;;;;;;10.05;4.78;;;24.50;81.80;;;;;;5033709;28;20400;-81
2023/05/31 12:37:38;;;;;;;8.40;3.92;;;24.30;81.40;;;;;;5033778;28;20045;-81
2023/05/31 12:40:16;;;;;;;6.95;4.13;;;24.20;82.00;;;;;;5036049;28;20080;-82
2023/05/31 12:42:42;;;;;;;10.15;4.53;;;24.40;80.50;;;;;;5027640;28;20038;-81
2023/05/31 12:45:09;;;;;;;7.78;4.30;;;24.10;80.70;;;;;;5018996;28;20049;-81
2023/05/31 12:47:36;;;;;;;9.45;4.03;;;23.90;81.80;;;;;;5033137;28;20049;-81
2023/05/31 12:50:06;;;;;;;6.72;4.05;;;24.00;83.30;;;;;;5032570;28;20045;-80
2023/05/31 12:52:40;;;;;;;9.13;4.35;;;24.00;85.10;;;;;;5013979;28;20041;-81